sensor_id;sensor_type;location;lat;lon;timestamp;P1;durP1;ratioP1;P2;durP2;ratioP2
7160;SDS011;3622;53.576;9.978;2023-12-07T00:02:08;92.83;;;30.47;;
7160;SDS011;3622;53.576;9.978;2023-12-07T00:04:34;89.47;;;30.30;;
7160;SDS011;3622;53.576;9.978;2023-12-07T00:07:00;91.70;;;31.07;;
7160;SDS011;3622;53.576;9.978;2023-12-07T00:09:26;98.17;;;29.43;;
7160;SDS011;3622;53.576;9.978;2023-12-07T00:11:52;92.27;;;31.13;;
7160;SDS011;3622;53.576;9.978;2023-12-07T00:14:18;81.43;;;27.93;;
7160;SDS011;3622;53.576;9.978;2023-12-07T00:16:43;76.50;;;29.00;;
7160;SDS011;3622;53.576;9.978;2023-12-07T00:19:09;77.70;;;28.80;;
7160;SDS011;3622;53.576;9.978;2023-12-07T00:21:35;80.83;;;29.33;;
7160;SDS011;3622;53.576;9.978;2023-12-07T00:24:01;86.90;;;28.87;;
7160;SDS011;3622;53.576;9.978;2023-12-07T00:26:27;84.60;;;28.60;;
7160;SDS011;3622;53.576;9.978;2023-12-07T00:28:53;85.90;;;27.53;;
7160;SDS011;3622;53.576;9.978;2023-12-07T00:31:19;82.73;;;29.57;;
7160;SDS011;3622;53.576;9.978;2023-12-07T00:33:45;86.43;;;29.87;;
7160;SDS011;3622;53.576;9.978;2023-12-07T00:36:11;84.77;;;28.13;;
7160;SDS011;3622;53.576;9.978;2023-12-07T00:38:37;89.13;;;29.30;;
7160;SDS011;3622;53.576;9.978;2023-12-07T00:41:03;83.70;;;29.47;;
7160;SDS011;3622;53.576;9.978;2023-12-07T00:43:29;92.13;;;28.83;;
7160;SDS011;3622;53.576;9.978;2023-12-07T00:45:55;81.10;;;28.60;;
7160;SDS011;3622;53.576;9.978;2023-12-07T00:48:22;87.33;;;29.53;;
7160;SDS011;3622;53.576;9.978;2023-12-07T00:50:48;89.93;;;28.53;;
7160;SDS011;3622;53.576;9.978;2023-12-07T00:53:14;95.47;;;31.03;;
7160;SDS011;3622;53.576;9.978;2023-12-07T00:55:40;89.60;;;29.17;;
7160;SDS011;3622;53.576;9.978;2023-12-07T00:58:06;86.37;;;29.63;;
7160;SDS011;3622;53.576;9.978;2023-12-07T01:00:32;91.63;;;30.23;;
7160;SDS011;3622;53.576;9.978;2023-12-07T01:02:58;99.70;;;30.23;;
7160;SDS011;3622;53.576;9.978;2023-12-07T01:05:24;91.50;;;30.00;;
7160;SDS011;3622;53.576;9.978;2023-12-07T01:07:50;96.13;;;31.53;;
7160;SDS011;3622;53.576;9.978;2023-12-07T01:10:16;94.83;;;30.90;;
7160;SDS011;3622;53.576;9.978;2023-12-07T01:12:42;91.13;;;30.10;;
7160;SDS011;3622;53.576;9.978;2023-12-07T01:15:08;96.67;;;30.27;;
7160;SDS011;3622;53.576;9.978;2023-12-07T01:17:34;86.57;;;31.00;;
7160;SDS011;3622;53.576;9.978;2023-12-07T01:20:00;88.03;;;28.60;;
7160;SDS011;3622;53.576;9.978;2023-12-07T01:22:28;82.50;;;27.70;;
7160;SDS011;3622;53.576;9.978;2023-12-07T01:24:54;85.47;;;29.00;;
7160;SDS011;3622;53.576;9.978;2023-12-07T01:27:20;77.67;;;28.10;;
7160;SDS011;3622;53.576;9.978;2023-12-07T01:29:46;89.60;;;29.60;;
7160;SDS011;3622;53.576;9.978;2023-12-07T01:32:12;74.70;;;27.80;;
7160;SDS011;3622;53.576;9.978;2023-12-07T01:34:39;92.27;;;29.30;;
7160;SDS011;3622;53.576;9.978;2023-12-07T01:37:05;85.60;;;27.43;;
7160;SDS011;3622;53.576;9.978;2023-12-07T01:39:31;92.00;;;30.17;;
7160;SDS011;3622;53.576;9.978;2023-12-07T01:41:58;85.47;;;29.50;;
7160;SDS011;3622;53.576;9.978;2023-12-07T01:44:23;90.87;;;31.00;;
7160;SDS011;3622;53.576;9.978;2023-12-07T01:46:50;96.83;;;30.43;;
7160;SDS011;3622;53.576;9.978;2023-12-07T01:49:16;99.50;;;29.73;;
7160;SDS011;3622;53.576;9.978;2023-12-07T01:51:42;85.17;;;29.53;;
7160;SDS011;3622;53.576;9.978;2023-12-07T01:54:08;89.90;;;27.93;;
7160;SDS011;3622;53.576;9.978;2023-12-07T01:56:34;93.73;;;28.37;;
7160;SDS011;3622;53.576;9.978;2023-12-07T01:59:00;87.00;;;28.43;;
7160;SDS011;3622;53.576;9.978;2023-12-07T02:01:26;102.03;;;30.40;;
7160;SDS011;3622;53.576;9.978;2023-12-07T02:03:52;88.07;;;28.87;;
7160;SDS011;3622;53.576;9.978;2023-12-07T02:06:18;99.13;;;29.40;;
7160;SDS011;3622;53.576;9.978;2023-12-07T02:08:45;87.07;;;29.00;;
7160;SDS011;3622;53.576;9.978;2023-12-07T02:11:11;89.57;;;29.37;;
7160;SDS011;3622;53.576;9.978;2023-12-07T02:13:37;97.67;;;28.33;;
7160;SDS011;3622;53.576;9.978;2023-12-07T02:19:24;98.63;;;29.77;;
7160;SDS011;3622;53.576;9.978;2023-12-07T02:22:02;72.97;;;26.37;;
7160;SDS011;3622;53.576;9.978;2023-12-07T02:24:33;76.90;;;26.97;;
7160;SDS011;3622;53.576;9.978;2023-12-07T02:27:02;81.43;;;28.50;;
7160;SDS011;3622;53.576;9.978;2023-12-07T02:29:28;81.20;;;27.37;;
7160;SDS011;3622;53.576;9.978;2023-12-07T02:31:54;90.90;;;27.97;;
7160;SDS011;3622;53.576;9.978;2023-12-07T02:34:20;88.27;;;28.77;;
7160;SDS011;3622;53.576;9.978;2023-12-07T02:36:46;74.27;;;26.47;;
7160;SDS011;3622;53.576;9.978;2023-12-07T02:39:14;82.33;;;27.47;;
7160;SDS011;3622;53.576;9.978;2023-12-07T02:41:40;73.97;;;26.90;;
7160;SDS011;3622;53.576;9.978;2023-12-07T02:44:07;83.00;;;26.93;;
7160;SDS011;3622;53.576;9.978;2023-12-07T02:46:33;79.67;;;27.50;;
7160;SDS011;3622;53.576;9.978;2023-12-07T02:48:59;81.67;;;24.83;;
7160;SDS011;3622;53.576;9.978;2023-12-07T02:51:25;67.33;;;26.47;;
7160;SDS011;3622;53.576;9.978;2023-12-07T02:53:51;72.13;;;25.90;;
7160;SDS011;3622;53.576;9.978;2023-12-07T02:56:17;79.23;;;26.77;;
7160;SDS011;3622;53.576;9.978;2023-12-07T02:58:42;73.40;;;26.47;;
7160;SDS011;3622;53.576;9.978;2023-12-07T03:01:08;76.00;;;26.20;;
7160;SDS011;3622;53.576;9.978;2023-12-07T03:03:35;64.70;;;24.63;;
7160;SDS011;3622;53.576;9.978;2023-12-07T03:06:03;78.40;;;25.13;;
7160;SDS011;3622;53.576;9.978;2023-12-07T03:08:29;73.57;;;27.10;;
7160;SDS011;3622;53.576;9.978;2023-12-07T03:10:55;65.10;;;24.00;;
7160;SDS011;3622;53.576;9.978;2023-12-07T03:13:21;67.40;;;26.03;;
7160;SDS011;3622;53.576;9.978;2023-12-07T03:15:47;74.80;;;24.80;;
7160;SDS011;3622;53.576;9.978;2023-12-07T03:18:13;69.73;;;25.57;;
7160;SDS011;3622;53.576;9.978;2023-12-07T03:20:39;74.10;;;25.73;;
7160;SDS011;3622;53.576;9.978;2023-12-07T03:23:05;67.63;;;26.43;;
7160;SDS011;3622;53.576;9.978;2023-12-07T03:25:31;70.13;;;26.53;;
7160;SDS011;3622;53.576;9.978;2023-12-07T03:27:57;73.43;;;26.30;;
7160;SDS011;3622;53.576;9.978;2023-12-07T03:30:23;84.83;;;27.23;;
7160;SDS011;3622;53.576;9.978;2023-12-07T03:32:49;74.43;;;25.53;;
7160;SDS011;3622;53.576;9.978;2023-12-07T03:35:14;86.63;;;26.50;;
7160;SDS011;3622;53.576;9.978;2023-12-07T03:37:41;64.37;;;24.30;;
7160;SDS011;3622;53.576;9.978;2023-12-07T03:40:08;72.13;;;27.53;;
7160;SDS011;3622;53.576;9.978;2023-12-07T03:54:12;65.27;;;25.90;;
7160;SDS011;3622;53.576;9.978;2023-12-07T03:56:38;73.07;;;27.13;;
7160;SDS011;3622;53.576;9.978;2023-12-07T03:59:05;66.33;;;27.20;;
7160;SDS011;3622;53.576;9.978;2023-12-07T04:01:31;65.90;;;26.50;;
7160;SDS011;3622;53.576;9.978;2023-12-07T04:03:57;64.20;;;25.20;;
7160;SDS011;3622;53.576;9.978;2023-12-07T04:06:25;63.10;;;25.43;;
7160;SDS011;3622;53.576;9.978;2023-12-07T04:08:51;65.17;;;25.60;;
7160;SDS011;3622;53.576;9.978;2023-12-07T04:11:17;62.57;;;25.17;;
7160;SDS011;3622;53.576;9.978;2023-12-07T04:13:43;66.83;;;27.30;;
7160;SDS011;3622;53.576;9.978;2023-12-07T04:16:10;63.03;;;25.97;;
7160;SDS011;3622;53.576;9.978;2023-12-07T04:18:36;63.63;;;25.73;;
7160;SDS011;3622;53.576;9.978;2023-12-07T04:21:02;68.67;;;26.30;;
7160;SDS011;3622;53.576;9.978;2023-12-07T04:23:28;60.67;;;25.10;;
7160;SDS011;3622;53.576;9.978;2023-12-07T04:25:54;60.00;;;25.27;;
7160;SDS011;3622;53.576;9.978;2023-12-07T04:28:20;63.80;;;25.00;;
7160;SDS011;3622;53.576;9.978;2023-12-07T04:30:46;71.40;;;27.03;;
7160;SDS011;3622;53.576;9.978;2023-12-07T04:33:12;63.43;;;25.57;;
7160;SDS011;3622;53.576;9.978;2023-12-07T04:35:38;58.80;;;23.80;;
7160;SDS011;3622;53.576;9.978;2023-12-07T04:38:04;61.50;;;24.17;;
7160;SDS011;3622;53.576;9.978;2023-12-07T04:40:30;59.73;;;24.70;;
7160;SDS011;3622;53.576;9.978;2023-12-07T04:42:56;65.43;;;25.13;;
7160;SDS011;3622;53.576;9.978;2023-12-07T04:45:22;63.90;;;26.30;;
7160;SDS011;3622;53.576;9.978;2023-12-07T04:47:48;59.73;;;24.70;;
7160;SDS011;3622;53.576;9.978;2023-12-07T04:50:14;61.67;;;24.10;;
7160;SDS011;3622;53.576;9.978;2023-12-07T04:52:40;65.83;;;25.73;;
7160;SDS011;3622;53.576;9.978;2023-12-07T04:55:06;62.77;;;25.37;;
7160;SDS011;3622;53.576;9.978;2023-12-07T04:57:36;61.37;;;25.37;;
7160;SDS011;3622;53.576;9.978;2023-12-07T05:00:02;58.87;;;24.40;;
7160;SDS011;3622;53.576;9.978;2023-12-07T05:02:31;57.53;;;23.97;;
7160;SDS011;3622;53.576;9.978;2023-12-07T05:04:57;60.10;;;24.40;;
7160;SDS011;3622;53.576;9.978;2023-12-07T05:07:23;57.70;;;22.70;;
7160;SDS011;3622;53.576;9.978;2023-12-07T05:09:50;53.17;;;23.70;;
7160;SDS011;3622;53.576;9.978;2023-12-07T05:12:16;55.57;;;24.17;;
7160;SDS011;3622;53.576;9.978;2023-12-07T05:14:42;60.23;;;23.83;;
7160;SDS011;3622;53.576;9.978;2023-12-07T05:17:08;54.67;;;23.10;;
7160;SDS011;3622;53.576;9.978;2023-12-07T05:19:34;54.23;;;22.83;;
7160;SDS011;3622;53.576;9.978;2023-12-07T05:22:00;53.40;;;23.60;;
7160;SDS011;3622;53.576;9.978;2023-12-07T05:24:26;55.67;;;23.87;;
7160;SDS011;3622;53.576;9.978;2023-12-07T05:26:53;55.00;;;22.53;;
7160;SDS011;3622;53.576;9.978;2023-12-07T05:29:19;52.57;;;22.53;;
7160;SDS011;3622;53.576;9.978;2023-12-07T05:31:44;49.80;;;22.57;;
7160;SDS011;3622;53.576;9.978;2023-12-07T05:34:10;51.17;;;22.50;;
7160;SDS011;3622;53.576;9.978;2023-12-07T05:36:36;51.30;;;22.20;;
7160;SDS011;3622;53.576;9.978;2023-12-07T05:39:02;58.60;;;24.57;;
7160;SDS011;3622;53.576;9.978;2023-12-07T05:41:32;48.30;;;22.87;;
7160;SDS011;3622;53.576;9.978;2023-12-07T05:43:58;54.10;;;23.60;;
7160;SDS011;3622;53.576;9.978;2023-12-07T05:46:24;52.77;;;23.53;;
7160;SDS011;3622;53.576;9.978;2023-12-07T05:48:49;53.47;;;24.30;;
7160;SDS011;3622;53.576;9.978;2023-12-07T05:51:16;48.47;;;23.87;;
7160;SDS011;3622;53.576;9.978;2023-12-07T05:53:42;47.87;;;21.77;;
7160;SDS011;3622;53.576;9.978;2023-12-07T05:56:09;51.43;;;22.30;;
7160;SDS011;3622;53.576;9.978;2023-12-07T05:58:36;55.60;;;22.93;;
7160;SDS011;3622;53.576;9.978;2023-12-07T06:01:02;52.83;;;22.40;;
7160;SDS011;3622;53.576;9.978;2023-12-07T06:03:28;58.00;;;23.50;;
7160;SDS011;3622;53.576;9.978;2023-12-07T06:05:54;54.20;;;23.97;;
7160;SDS011;3622;53.576;9.978;2023-12-07T06:08:20;56.60;;;24.63;;
7160;SDS011;3622;53.576;9.978;2023-12-07T06:10:46;55.27;;;23.80;;
7160;SDS011;3622;53.576;9.978;2023-12-07T06:13:13;47.87;;;22.07;;
7160;SDS011;3622;53.576;9.978;2023-12-07T06:15:39;63.90;;;26.97;;
7160;SDS011;3622;53.576;9.978;2023-12-07T06:18:05;53.13;;;24.03;;
7160;SDS011;3622;53.576;9.978;2023-12-07T06:20:31;52.67;;;23.40;;
7160;SDS011;3622;53.576;9.978;2023-12-07T06:22:58;53.57;;;24.83;;
7160;SDS011;3622;53.576;9.978;2023-12-07T06:25:24;68.83;;;31.87;;
7160;SDS011;3622;53.576;9.978;2023-12-07T06:27:50;49.70;;;23.97;;
7160;SDS011;3622;53.576;9.978;2023-12-07T06:30:16;56.30;;;25.63;;
7160;SDS011;3622;53.576;9.978;2023-12-07T06:32:42;59.43;;;24.97;;
7160;SDS011;3622;53.576;9.978;2023-12-07T06:35:11;56.17;;;24.47;;
7160;SDS011;3622;53.576;9.978;2023-12-07T06:37:37;55.47;;;24.03;;
7160;SDS011;3622;53.576;9.978;2023-12-07T06:40:05;56.77;;;25.20;;
7160;SDS011;3622;53.576;9.978;2023-12-07T06:42:34;58.27;;;24.80;;
7160;SDS011;3622;53.576;9.978;2023-12-07T06:45:00;54.50;;;25.33;;
7160;SDS011;3622;53.576;9.978;2023-12-07T06:47:27;57.33;;;25.50;;
7160;SDS011;3622;53.576;9.978;2023-12-07T06:49:53;55.33;;;25.47;;
7160;SDS011;3622;53.576;9.978;2023-12-07T06:52:19;53.07;;;24.50;;
7160;SDS011;3622;53.576;9.978;2023-12-07T06:54:45;55.63;;;24.47;;
7160;SDS011;3622;53.576;9.978;2023-12-07T06:57:11;58.93;;;24.97;;
7160;SDS011;3622;53.576;9.978;2023-12-07T06:59:37;59.70;;;25.47;;
7160;SDS011;3622;53.576;9.978;2023-12-07T07:02:03;54.77;;;25.07;;
7160;SDS011;3622;53.576;9.978;2023-12-07T07:04:29;55.63;;;24.10;;
7160;SDS011;3622;53.576;9.978;2023-12-07T07:06:55;57.90;;;25.80;;
7160;SDS011;3622;53.576;9.978;2023-12-07T07:09:21;58.20;;;26.60;;
7160;SDS011;3622;53.576;9.978;2023-12-07T07:11:48;53.60;;;25.03;;
7160;SDS011;3622;53.576;9.978;2023-12-07T07:14:14;60.40;;;24.80;;
7160;SDS011;3622;53.576;9.978;2023-12-07T07:16:40;59.83;;;25.67;;
7160;SDS011;3622;53.576;9.978;2023-12-07T07:19:06;58.40;;;24.80;;
7160;SDS011;3622;53.576;9.978;2023-12-07T07:21:33;56.50;;;25.13;;
7160;SDS011;3622;53.576;9.978;2023-12-07T07:23:59;62.00;;;26.63;;
7160;SDS011;3622;53.576;9.978;2023-12-07T07:26:25;56.90;;;24.83;;
7160;SDS011;3622;53.576;9.978;2023-12-07T07:28:52;60.10;;;26.47;;
7160;SDS011;3622;53.576;9.978;2023-12-07T07:31:18;56.53;;;25.93;;
7160;SDS011;3622;53.576;9.978;2023-12-07T07:33:44;57.90;;;26.13;;
7160;SDS011;3622;53.576;9.978;2023-12-07T07:36:14;66.13;;;27.07;;
7160;SDS011;3622;53.576;9.978;2023-12-07T07:38:40;52.00;;;24.93;;
7160;SDS011;3622;53.576;9.978;2023-12-07T07:41:06;57.53;;;26.27;;
7160;SDS011;3622;53.576;9.978;2023-12-07T07:43:32;57.27;;;25.40;;
7160;SDS011;3622;53.576;9.978;2023-12-07T07:45:59;54.97;;;24.63;;
7160;SDS011;3622;53.576;9.978;2023-12-07T07:48:26;54.53;;;26.13;;
7160;SDS011;3622;53.576;9.978;2023-12-07T07:50:52;50.70;;;24.03;;
7160;SDS011;3622;53.576;9.978;2023-12-07T07:53:18;55.77;;;25.37;;
7160;SDS011;3622;53.576;9.978;2023-12-07T07:55:44;51.77;;;24.37;;
7160;SDS011;3622;53.576;9.978;2023-12-07T07:58:10;52.43;;;24.07;;
7160;SDS011;3622;53.576;9.978;2023-12-07T08:00:36;59.20;;;24.40;;
7160;SDS011;3622;53.576;9.978;2023-12-07T08:03:02;53.73;;;23.87;;
7160;SDS011;3622;53.576;9.978;2023-12-07T08:05:28;55.60;;;25.20;;
7160;SDS011;3622;53.576;9.978;2023-12-07T08:07:54;51.97;;;24.03;;
7160;SDS011;3622;53.576;9.978;2023-12-07T08:10:20;52.23;;;23.60;;
7160;SDS011;3622;53.576;9.978;2023-12-07T08:12:46;54.73;;;24.70;;
7160;SDS011;3622;53.576;9.978;2023-12-07T08:15:12;51.63;;;23.57;;
7160;SDS011;3622;53.576;9.978;2023-12-07T08:17:39;53.30;;;24.23;;
7160;SDS011;3622;53.576;9.978;2023-12-07T08:20:06;59.57;;;24.30;;
7160;SDS011;3622;53.576;9.978;2023-12-07T08:22:32;55.30;;;24.07;;
7160;SDS011;3622;53.576;9.978;2023-12-07T08:24:58;58.40;;;26.00;;
7160;SDS011;3622;53.576;9.978;2023-12-07T08:27:25;57.03;;;24.00;;
7160;SDS011;3622;53.576;9.978;2023-12-07T08:29:51;63.67;;;26.10;;
7160;SDS011;3622;53.576;9.978;2023-12-07T08:32:17;70.97;;;26.53;;
7160;SDS011;3622;53.576;9.978;2023-12-07T08:34:44;56.77;;;24.30;;
7160;SDS011;3622;53.576;9.978;2023-12-07T08:37:10;59.73;;;25.60;;
7160;SDS011;3622;53.576;9.978;2023-12-07T08:39:36;59.30;;;26.07;;
7160;SDS011;3622;53.576;9.978;2023-12-07T08:42:03;59.37;;;24.93;;
7160;SDS011;3622;53.576;9.978;2023-12-07T08:44:29;59.00;;;24.37;;
7160;SDS011;3622;53.576;9.978;2023-12-07T08:46:55;55.93;;;24.47;;
7160;SDS011;3622;53.576;9.978;2023-12-07T08:49:21;62.37;;;26.70;;
7160;SDS011;3622;53.576;9.978;2023-12-07T08:51:47;60.07;;;26.60;;
7160;SDS011;3622;53.576;9.978;2023-12-07T08:54:12;54.97;;;25.13;;
7160;SDS011;3622;53.576;9.978;2023-12-07T08:56:38;58.87;;;25.47;;
7160;SDS011;3622;53.576;9.978;2023-12-07T08:59:04;57.07;;;24.93;;
7160;SDS011;3622;53.576;9.978;2023-12-07T09:01:30;52.37;;;21.47;;
7160;SDS011;3622;53.576;9.978;2023-12-07T09:03:58;66.03;;;26.53;;
7160;SDS011;3622;53.576;9.978;2023-12-07T09:06:24;58.20;;;25.80;;
7160;SDS011;3622;53.576;9.978;2023-12-07T09:08:50;55.30;;;25.70;;
7160;SDS011;3622;53.576;9.978;2023-12-07T09:11:16;59.83;;;25.53;;
7160;SDS011;3622;53.576;9.978;2023-12-07T09:13:42;60.70;;;26.13;;
7160;SDS011;3622;53.576;9.978;2023-12-07T09:16:08;60.30;;;26.67;;
7160;SDS011;3622;53.576;9.978;2023-12-07T09:18:34;59.80;;;25.60;;
7160;SDS011;3622;53.576;9.978;2023-12-07T09:21:03;55.50;;;25.00;;
7160;SDS011;3622;53.576;9.978;2023-12-07T09:23:29;58.33;;;25.73;;
7160;SDS011;3622;53.576;9.978;2023-12-07T09:25:55;59.77;;;25.03;;
7160;SDS011;3622;53.576;9.978;2023-12-07T09:28:21;57.77;;;25.90;;
7160;SDS011;3622;53.576;9.978;2023-12-07T09:30:47;64.17;;;27.23;;
7160;SDS011;3622;53.576;9.978;2023-12-07T09:33:13;55.83;;;25.30;;
7160;SDS011;3622;53.576;9.978;2023-12-07T09:35:39;55.80;;;25.10;;
7160;SDS011;3622;53.576;9.978;2023-12-07T09:38:05;56.17;;;23.90;;
7160;SDS011;3622;53.576;9.978;2023-12-07T09:40:32;55.00;;;24.63;;
7160;SDS011;3622;53.576;9.978;2023-12-07T09:42:58;48.93;;;24.13;;
7160;SDS011;3622;53.576;9.978;2023-12-07T09:45:24;58.70;;;25.97;;
7160;SDS011;3622;53.576;9.978;2023-12-07T09:47:50;55.50;;;26.23;;
7160;SDS011;3622;53.576;9.978;2023-12-07T09:50:17;55.07;;;24.90;;
7160;SDS011;3622;53.576;9.978;2023-12-07T09:52:43;56.33;;;26.00;;
7160;SDS011;3622;53.576;9.978;2023-12-07T09:55:09;63.53;;;28.43;;
7160;SDS011;3622;53.576;9.978;2023-12-07T09:57:36;63.20;;;28.30;;
7160;SDS011;3622;53.576;9.978;2023-12-07T10:00:03;61.67;;;27.00;;
7160;SDS011;3622;53.576;9.978;2023-12-07T10:02:29;67.37;;;28.30;;
7160;SDS011;3622;53.576;9.978;2023-12-07T10:05:05;58.70;;;25.83;;
7160;SDS011;3622;53.576;9.978;2023-12-07T10:07:34;57.40;;;26.17;;
7160;SDS011;3622;53.576;9.978;2023-12-07T10:10:01;57.23;;;26.43;;
7160;SDS011;3622;53.576;9.978;2023-12-07T10:12:28;65.77;;;27.10;;
7160;SDS011;3622;53.576;9.978;2023-12-07T10:14:54;68.90;;;28.17;;
7160;SDS011;3622;53.576;9.978;2023-12-07T10:17:20;68.83;;;28.43;;
7160;SDS011;3622;53.576;9.978;2023-12-07T10:19:46;69.43;;;28.90;;
7160;SDS011;3622;53.576;9.978;2023-12-07T10:22:15;90.43;;;34.03;;
7160;SDS011;3622;53.576;9.978;2023-12-07T10:24:41;59.57;;;26.17;;
7160;SDS011;3622;53.576;9.978;2023-12-07T10:27:07;58.70;;;25.27;;
7160;SDS011;3622;53.576;9.978;2023-12-07T10:29:37;58.07;;;26.50;;
7160;SDS011;3622;53.576;9.978;2023-12-07T10:32:04;61.73;;;27.50;;
7160;SDS011;3622;53.576;9.978;2023-12-07T10:34:32;52.60;;;23.57;;
7160;SDS011;3622;53.576;9.978;2023-12-07T10:37:00;50.37;;;23.40;;
7160;SDS011;3622;53.576;9.978;2023-12-07T10:39:29;49.70;;;22.17;;
7160;SDS011;3622;53.576;9.978;2023-12-07T10:41:56;50.53;;;21.60;;
7160;SDS011;3622;53.576;9.978;2023-12-07T10:44:26;56.10;;;23.13;;
7160;SDS011;3622;53.576;9.978;2023-12-07T10:46:54;53.20;;;21.77;;
7160;SDS011;3622;53.576;9.978;2023-12-07T10:49:21;72.43;;;27.00;;
7160;SDS011;3622;53.576;9.978;2023-12-07T10:51:51;51.33;;;21.93;;
7160;SDS011;3622;53.576;9.978;2023-12-07T10:54:22;55.47;;;23.27;;
7160;SDS011;3622;53.576;9.978;2023-12-07T10:56:48;51.00;;;22.37;;
7160;SDS011;3622;53.576;9.978;2023-12-07T10:59:15;48.80;;;22.90;;
7160;SDS011;3622;53.576;9.978;2023-12-07T11:01:42;45.70;;;21.67;;
7160;SDS011;3622;53.576;9.978;2023-12-07T11:04:12;49.43;;;20.77;;
7160;SDS011;3622;53.576;9.978;2023-12-07T11:06:42;47.87;;;22.63;;
7160;SDS011;3622;53.576;9.978;2023-12-07T11:09:10;49.80;;;22.43;;
7160;SDS011;3622;53.576;9.978;2023-12-07T11:11:49;48.43;;;22.23;;
7160;SDS011;3622;53.576;9.978;2023-12-07T11:14:16;56.53;;;25.80;;
7160;SDS011;3622;53.576;9.978;2023-12-07T11:16:43;69.13;;;31.17;;
7160;SDS011;3622;53.576;9.978;2023-12-07T11:19:43;57.70;;;24.07;;
7160;SDS011;3622;53.576;9.978;2023-12-07T11:22:10;46.47;;;21.40;;
7160;SDS011;3622;53.576;9.978;2023-12-07T11:24:36;43.50;;;21.27;;
7160;SDS011;3622;53.576;9.978;2023-12-07T11:27:02;66.97;;;30.70;;
7160;SDS011;3622;53.576;9.978;2023-12-07T11:29:29;67.30;;;30.70;;
7160;SDS011;3622;53.576;9.978;2023-12-07T11:31:55;45.53;;;21.73;;
7160;SDS011;3622;53.576;9.978;2023-12-07T11:37:01;60.03;;;28.83;;
7160;SDS011;3622;53.576;9.978;2023-12-07T11:39:28;41.07;;;20.13;;
7160;SDS011;3622;53.576;9.978;2023-12-07T11:41:54;42.30;;;20.30;;
7160;SDS011;3622;53.576;9.978;2023-12-07T11:44:36;41.50;;;19.77;;
7160;SDS011;3622;53.576;9.978;2023-12-07T11:47:03;38.17;;;18.90;;
7160;SDS011;3622;53.576;9.978;2023-12-07T11:49:29;57.57;;;21.23;;
7160;SDS011;3622;53.576;9.978;2023-12-07T11:51:56;47.43;;;21.90;;
7160;SDS011;3622;53.576;9.978;2023-12-07T11:54:23;47.67;;;21.93;;
7160;SDS011;3622;53.576;9.978;2023-12-07T11:56:53;40.73;;;19.53;;
7160;SDS011;3622;53.576;9.978;2023-12-07T11:59:19;43.30;;;20.03;;
7160;SDS011;3622;53.576;9.978;2023-12-07T12:01:48;41.20;;;19.20;;
7160;SDS011;3622;53.576;9.978;2023-12-07T12:04:14;40.20;;;18.70;;
7160;SDS011;3622;53.576;9.978;2023-12-07T12:06:43;39.40;;;19.37;;
7160;SDS011;3622;53.576;9.978;2023-12-07T12:09:09;37.63;;;18.93;;
7160;SDS011;3622;53.576;9.978;2023-12-07T12:11:37;62.53;;;22.87;;
7160;SDS011;3622;53.576;9.978;2023-12-07T12:14:03;50.73;;;21.23;;
7160;SDS011;3622;53.576;9.978;2023-12-07T12:16:29;45.90;;;20.57;;
7160;SDS011;3622;53.576;9.978;2023-12-07T12:18:55;48.87;;;21.23;;
7160;SDS011;3622;53.576;9.978;2023-12-07T12:21:22;48.57;;;22.63;;
7160;SDS011;3622;53.576;9.978;2023-12-07T12:23:48;50.67;;;23.37;;
7160;SDS011;3622;53.576;9.978;2023-12-07T12:26:14;54.73;;;23.37;;
7160;SDS011;3622;53.576;9.978;2023-12-07T12:28:40;52.40;;;22.70;;
7160;SDS011;3622;53.576;9.978;2023-12-07T12:31:08;54.47;;;23.03;;
7160;SDS011;3622;53.576;9.978;2023-12-07T12:33:36;48.53;;;21.80;;
7160;SDS011;3622;53.576;9.978;2023-12-07T12:36:03;49.27;;;22.50;;
7160;SDS011;3622;53.576;9.978;2023-12-07T12:38:30;45.20;;;21.90;;
7160;SDS011;3622;53.576;9.978;2023-12-07T12:40:57;59.70;;;24.17;;
7160;SDS011;3622;53.576;9.978;2023-12-07T12:43:25;52.97;;;23.37;;
7160;SDS011;3622;53.576;9.978;2023-12-07T12:45:50;72.80;;;27.10;;
7160;SDS011;3622;53.576;9.978;2023-12-07T12:48:17;87.00;;;25.90;;
7160;SDS011;3622;53.576;9.978;2023-12-07T12:50:43;65.33;;;24.80;;
7160;SDS011;3622;53.576;9.978;2023-12-07T12:53:09;53.10;;;22.80;;
7160;SDS011;3622;53.576;9.978;2023-12-07T12:55:36;54.43;;;24.23;;
7160;SDS011;3622;53.576;9.978;2023-12-07T12:58:03;54.67;;;23.93;;
7160;SDS011;3622;53.576;9.978;2023-12-07T13:00:29;57.70;;;24.10;;
7160;SDS011;3622;53.576;9.978;2023-12-07T13:02:59;62.47;;;27.80;;
7160;SDS011;3622;53.576;9.978;2023-12-07T13:05:26;52.83;;;23.93;;
7160;SDS011;3622;53.576;9.978;2023-12-07T13:07:52;53.30;;;23.33;;
7160;SDS011;3622;53.576;9.978;2023-12-07T13:10:18;50.53;;;22.10;;
7160;SDS011;3622;53.576;9.978;2023-12-07T13:12:44;59.00;;;24.50;;
7160;SDS011;3622;53.576;9.978;2023-12-07T13:15:10;55.70;;;24.00;;
7160;SDS011;3622;53.576;9.978;2023-12-07T13:17:37;44.43;;;22.20;;
7160;SDS011;3622;53.576;9.978;2023-12-07T13:20:07;50.50;;;23.17;;
7160;SDS011;3622;53.576;9.978;2023-12-07T13:22:39;49.87;;;23.57;;
7160;SDS011;3622;53.576;9.978;2023-12-07T13:25:05;65.73;;;27.50;;
7160;SDS011;3622;53.576;9.978;2023-12-07T13:27:32;53.03;;;23.33;;
7160;SDS011;3622;53.576;9.978;2023-12-07T13:29:58;48.57;;;22.60;;
7160;SDS011;3622;53.576;9.978;2023-12-07T13:32:24;49.83;;;22.20;;
7160;SDS011;3622;53.576;9.978;2023-12-07T13:34:50;54.60;;;23.60;;
7160;SDS011;3622;53.576;9.978;2023-12-07T13:37:17;56.40;;;25.70;;
7160;SDS011;3622;53.576;9.978;2023-12-07T13:39:43;55.20;;;23.07;;
7160;SDS011;3622;53.576;9.978;2023-12-07T13:42:09;53.97;;;22.90;;
7160;SDS011;3622;53.576;9.978;2023-12-07T13:44:35;59.70;;;24.47;;
7160;SDS011;3622;53.576;9.978;2023-12-07T13:47:01;51.63;;;23.37;;
7160;SDS011;3622;53.576;9.978;2023-12-07T13:49:28;53.23;;;23.23;;
7160;SDS011;3622;53.576;9.978;2023-12-07T13:51:54;55.03;;;24.33;;
7160;SDS011;3622;53.576;9.978;2023-12-07T13:54:20;56.33;;;23.90;;
7160;SDS011;3622;53.576;9.978;2023-12-07T13:56:47;62.30;;;26.03;;
7160;SDS011;3622;53.576;9.978;2023-12-07T13:59:13;62.40;;;26.30;;
7160;SDS011;3622;53.576;9.978;2023-12-07T14:01:39;51.60;;;22.83;;
7160;SDS011;3622;53.576;9.978;2023-12-07T14:04:06;59.57;;;24.40;;
7160;SDS011;3622;53.576;9.978;2023-12-07T14:06:32;55.00;;;23.63;;
7160;SDS011;3622;53.576;9.978;2023-12-07T14:09:00;61.13;;;24.00;;
7160;SDS011;3622;53.576;9.978;2023-12-07T14:11:26;60.10;;;24.70;;
7160;SDS011;3622;53.576;9.978;2023-12-07T14:13:52;55.33;;;24.63;;
7160;SDS011;3622;53.576;9.978;2023-12-07T14:16:19;62.50;;;24.90;;
7160;SDS011;3622;53.576;9.978;2023-12-07T14:18:46;56.37;;;24.73;;
7160;SDS011;3622;53.576;9.978;2023-12-07T14:21:12;62.60;;;23.97;;
7160;SDS011;3622;53.576;9.978;2023-12-07T14:23:39;59.20;;;25.37;;
7160;SDS011;3622;53.576;9.978;2023-12-07T14:26:05;58.53;;;24.60;;
7160;SDS011;3622;53.576;9.978;2023-12-07T14:28:31;59.20;;;25.30;;
7160;SDS011;3622;53.576;9.978;2023-12-07T14:30:59;56.80;;;24.73;;
7160;SDS011;3622;53.576;9.978;2023-12-07T14:33:25;58.20;;;25.50;;
7160;SDS011;3622;53.576;9.978;2023-12-07T14:35:51;82.73;;;32.47;;
7160;SDS011;3622;53.576;9.978;2023-12-07T14:38:17;79.00;;;33.90;;
7160;SDS011;3622;53.576;9.978;2023-12-07T14:40:43;65.37;;;26.87;;
7160;SDS011;3622;53.576;9.978;2023-12-07T14:43:08;90.13;;;35.40;;
7160;SDS011;3622;53.576;9.978;2023-12-07T14:45:34;64.63;;;25.63;;
7160;SDS011;3622;53.576;9.978;2023-12-07T14:48:00;63.30;;;25.40;;
7160;SDS011;3622;53.576;9.978;2023-12-07T14:50:26;69.97;;;26.17;;
7160;SDS011;3622;53.576;9.978;2023-12-07T14:52:52;64.83;;;25.63;;
7160;SDS011;3622;53.576;9.978;2023-12-07T14:55:18;70.30;;;25.43;;
7160;SDS011;3622;53.576;9.978;2023-12-07T14:57:45;68.60;;;27.97;;
7160;SDS011;3622;53.576;9.978;2023-12-07T15:00:13;69.27;;;27.00;;
7160;SDS011;3622;53.576;9.978;2023-12-07T15:02:39;61.93;;;23.73;;